Agargaon, India

3:43 AM IST on December 10, 2016 (GMT +0530)
Nagpur | | Change Station

Elev 1017 ft 21.09 °N, 79.06 °E | Updated 43 minutes ago

Clear
Clear
52 °F
Feels Like 52 °F
N
2
Wind Variable Wind from NW

Today
High -- | Low -- °F
--% Chance of Precip.
Yesterday
High -- | Low -- °F
Precip. -- in
Pressure 29.92 in
Visibility 1.6 miles
Clouds
Dew Point 48 °F
Humidity 88%
Rainfall 0.00 in
Snow Depth Not available.
6:38 AM 5:31 PM
Waxing Gibbous, 77% visible
METAR VANP 092130Z 31002KT 2500 HZ NSC 11/09 Q1013 NOSIG
Pressure 29.92 in
Visibility 1.6 miles
Clouds
Dew Point 48 °F
Humidity 88%
Rainfall 0.00 in
Snow Depth Not available.
6:38 AM 5:31 PM
Waxing Gibbous, 77% visible
METAR VANP 092130Z 31002KT 2500 HZ NSC 11/09 Q1013 NOSIG

10-Day Weather Forecast

No radar image for this location.
×

Almanac

Astronomy

Dec. 10, 2016 Rise Set
Actual Time
Civil Twilight
Nautical Twilight
Astronomical Twilight
Moon
Length of Visible Light
Length of Day
Tomorrow will be .
, % of the Moon is Illuminated

Today's Extremes

Country Highs Country Lows

Community

WunderPhotos

Upload Photos

1,956,535 photos uploaded!

WunderBlog® & News

Nearby

Air Quality

  Air Quality AQ Index Pollutant
Not available.

Snow Depth

Station Depth Elevation

Earthquake Activity

City Distance Mag. Time & Date
Minimum magnitude displayed is 2.5.

Coastal Water Temperatures

Place Temperature

Stations

Nearby Weather Stations

Station Location Temp. Windchill Dew Point Humidity Wind Precip. Elev Updated Type